sensor_id;sensor_type;location;lat;lon;timestamp;P1;durP1;ratioP1;P2;durP2;ratioP2
54937;SDS011;52756;52.826;6.214;2023-04-03T00:01:09;2.70;;;0.73;;
54937;SDS011;52756;52.826;6.214;2023-04-03T00:03:35;2.63;;;1.10;;
54937;SDS011;52756;52.826;6.214;2023-04-03T00:06:02;7.40;;;1.73;;
54937;SDS011;52756;52.826;6.214;2023-04-03T00:08:28;1.70;;;0.82;;
54937;SDS011;52756;52.826;6.214;2023-04-03T00:10:57;1.55;;;0.70;;
54937;SDS011;52756;52.826;6.214;2023-04-03T00:13:23;2.15;;;0.82;;
54937;SDS011;52756;52.826;6.214;2023-04-03T00:15:50;3.50;;;0.82;;
54937;SDS011;52756;52.826;6.214;2023-04-03T00:18:16;2.78;;;1.00;;
54937;SDS011;52756;52.826;6.214;2023-04-03T00:20:42;2.10;;;0.80;;
54937;SDS011;52756;52.826;6.214;2023-04-03T00:23:08;2.97;;;0.90;;
54937;SDS011;52756;52.826;6.214;2023-04-03T00:25:34;3.17;;;1.10;;
54937;SDS011;52756;52.826;6.214;2023-04-03T00:28:00;5.30;;;0.98;;
54937;SDS011;52756;52.826;6.214;2023-04-03T00:30:26;1.17;;;0.60;;
54937;SDS011;52756;52.826;6.214;2023-04-03T00:32:52;3.42;;;1.13;;
54937;SDS011;52756;52.826;6.214;2023-04-03T00:35:18;1.60;;;0.90;;
54937;SDS011;52756;52.826;6.214;2023-04-03T00:37:45;2.17;;;0.80;;
54937;SDS011;52756;52.826;6.214;2023-04-03T00:40:12;3.60;;;0.80;;
54937;SDS011;52756;52.826;6.214;2023-04-03T00:42:40;3.85;;;1.00;;
54937;SDS011;52756;52.826;6.214;2023-04-03T00:45:23;2.97;;;0.80;;
54937;SDS011;52756;52.826;6.214;2023-04-03T00:47:55;2.03;;;0.82;;
54937;SDS011;52756;52.826;6.214;2023-04-03T00:50:22;2.67;;;0.88;;
54937;SDS011;52756;52.826;6.214;2023-04-03T00:52:48;3.00;;;0.98;;
54937;SDS011;52756;52.826;6.214;2023-04-03T00:55:14;4.78;;;1.00;;
54937;SDS011;52756;52.826;6.214;2023-04-03T00:57:41;2.65;;;0.75;;
54937;SDS011;52756;52.826;6.214;2023-04-03T01:00:09;2.90;;;0.82;;
54937;SDS011;52756;52.826;6.214;2023-04-03T01:02:37;1.52;;;0.80;;
54937;SDS011;52756;52.826;6.214;2023-04-03T01:05:05;2.27;;;0.87;;
54937;SDS011;52756;52.826;6.214;2023-04-03T01:07:32;2.10;;;0.75;;
54937;SDS011;52756;52.826;6.214;2023-04-03T01:10:03;2.00;;;0.98;;
54937;SDS011;52756;52.826;6.214;2023-04-03T01:12:35;1.92;;;0.77;;
54937;SDS011;52756;52.826;6.214;2023-04-03T01:15:24;2.42;;;0.73;;
54937;SDS011;52756;52.826;6.214;2023-04-03T01:17:52;2.88;;;0.65;;
54937;SDS011;52756;52.826;6.214;2023-04-03T01:25:47;1.48;;;0.63;;
54937;SDS011;52756;52.826;6.214;2023-04-03T01:33:35;3.10;;;0.77;;
54937;SDS011;52756;52.826;6.214;2023-04-03T01:36:02;2.90;;;0.93;;
54937;SDS011;52756;52.826;6.214;2023-04-03T01:38:29;5.43;;;1.00;;
54937;SDS011;52756;52.826;6.214;2023-04-03T01:40:54;2.17;;;0.80;;
54937;SDS011;52756;52.826;6.214;2023-04-03T01:43:20;3.03;;;0.90;;
54937;SDS011;52756;52.826;6.214;2023-04-03T01:45:46;1.73;;;0.80;;
54937;SDS011;52756;52.826;6.214;2023-04-03T01:48:14;3.83;;;0.80;;
54937;SDS011;52756;52.826;6.214;2023-04-03T01:50:40;2.63;;;0.90;;
54937;SDS011;52756;52.826;6.214;2023-04-03T01:53:06;3.70;;;0.70;;
54937;SDS011;52756;52.826;6.214;2023-04-03T01:55:32;3.07;;;0.80;;
54937;SDS011;52756;52.826;6.214;2023-04-03T01:57:57;2.40;;;1.00;;
54937;SDS011;52756;52.826;6.214;2023-04-03T02:00:23;2.20;;;1.00;;
54937;SDS011;52756;52.826;6.214;2023-04-03T02:02:49;4.07;;;1.00;;
54937;SDS011;52756;52.826;6.214;2023-04-03T02:05:15;2.00;;;0.70;;
54937;SDS011;52756;52.826;6.214;2023-04-03T02:07:41;2.60;;;0.70;;
54937;SDS011;52756;52.826;6.214;2023-04-03T02:10:06;3.25;;;0.95;;
54937;SDS011;52756;52.826;6.214;2023-04-03T02:12:32;4.47;;;1.63;;
54937;SDS011;52756;52.826;6.214;2023-04-03T02:14:58;2.20;;;0.87;;
54937;SDS011;52756;52.826;6.214;2023-04-03T02:17:24;4.90;;;1.30;;
54937;SDS011;52756;52.826;6.214;2023-04-03T02:19:50;2.43;;;0.70;;
54937;SDS011;52756;52.826;6.214;2023-04-03T02:22:15;1.73;;;0.80;;
54937;SDS011;52756;52.826;6.214;2023-04-03T02:24:41;3.50;;;0.90;;
54937;SDS011;52756;52.826;6.214;2023-04-03T02:27:07;2.43;;;0.80;;
54937;SDS011;52756;52.826;6.214;2023-04-03T02:29:33;3.77;;;0.97;;
54937;SDS011;52756;52.826;6.214;2023-04-03T02:31:59;3.33;;;1.00;;
54937;SDS011;52756;52.826;6.214;2023-04-03T02:34:24;4.00;;;1.17;;
54937;SDS011;52756;52.826;6.214;2023-04-03T02:36:50;2.67;;;1.00;;
54937;SDS011;52756;52.826;6.214;2023-04-03T02:39:16;5.77;;;1.50;;
54937;SDS011;52756;52.826;6.214;2023-04-03T02:41:41;2.47;;;0.93;;
54937;SDS011;52756;52.826;6.214;2023-04-03T02:44:09;4.40;;;1.33;;
54937;SDS011;52756;52.826;6.214;2023-04-03T02:46:35;3.90;;;1.20;;
54937;SDS011;52756;52.826;6.214;2023-04-03T02:49:01;2.60;;;0.97;;
54937;SDS011;52756;52.826;6.214;2023-04-03T02:51:28;3.87;;;1.07;;
54937;SDS011;52756;52.826;6.214;2023-04-03T02:53:53;2.53;;;1.00;;
54937;SDS011;52756;52.826;6.214;2023-04-03T02:56:19;4.40;;;1.20;;
54937;SDS011;52756;52.826;6.214;2023-04-03T02:58:46;3.50;;;1.10;;
54937;SDS011;52756;52.826;6.214;2023-04-03T03:01:12;4.17;;;1.50;;
54937;SDS011;52756;52.826;6.214;2023-04-03T03:03:37;4.60;;;1.30;;
54937;SDS011;52756;52.826;6.214;2023-04-03T03:06:04;2.60;;;1.33;;
54937;SDS011;52756;52.826;6.214;2023-04-03T03:08:31;3.63;;;1.70;;
54937;SDS011;52756;52.826;6.214;2023-04-03T03:10:57;3.07;;;1.40;;
54937;SDS011;52756;52.826;6.214;2023-04-03T03:13:23;5.03;;;1.73;;
54937;SDS011;52756;52.826;6.214;2023-04-03T03:15:49;3.57;;;1.00;;
54937;SDS011;52756;52.826;6.214;2023-04-03T03:18:15;3.80;;;1.60;;
54937;SDS011;52756;52.826;6.214;2023-04-03T03:20:41;4.07;;;1.10;;
54937;SDS011;52756;52.826;6.214;2023-04-03T03:23:07;3.20;;;1.20;;
54937;SDS011;52756;52.826;6.214;2023-04-03T03:25:33;3.47;;;1.00;;
54937;SDS011;52756;52.826;6.214;2023-04-03T03:28:02;3.07;;;1.20;;
54937;SDS011;52756;52.826;6.214;2023-04-03T03:30:28;4.70;;;1.40;;
54937;SDS011;52756;52.826;6.214;2023-04-03T03:32:53;3.33;;;1.30;;
54937;SDS011;52756;52.826;6.214;2023-04-03T03:35:19;4.37;;;1.20;;
54937;SDS011;52756;52.826;6.214;2023-04-03T03:37:45;3.73;;;1.10;;
54937;SDS011;52756;52.826;6.214;2023-04-03T03:40:10;4.30;;;1.00;;
54937;SDS011;52756;52.826;6.214;2023-04-03T03:42:38;2.80;;;1.40;;
54937;SDS011;52756;52.826;6.214;2023-04-03T03:45:04;1.90;;;1.20;;
54937;SDS011;52756;52.826;6.214;2023-04-03T03:47:30;2.80;;;0.90;;
54937;SDS011;52756;52.826;6.214;2023-04-03T03:49:56;2.53;;;1.03;;
54937;SDS011;52756;52.826;6.214;2023-04-03T03:52:21;3.20;;;1.13;;
54937;SDS011;52756;52.826;6.214;2023-04-03T03:54:47;3.00;;;1.27;;
54937;SDS011;52756;52.826;6.214;2023-04-03T03:57:13;2.73;;;1.23;;
54937;SDS011;52756;52.826;6.214;2023-04-03T03:59:40;2.70;;;1.10;;
54937;SDS011;52756;52.826;6.214;2023-04-03T04:02:07;2.10;;;0.90;;
54937;SDS011;52756;52.826;6.214;2023-04-03T04:04:32;3.17;;;1.00;;
54937;SDS011;52756;52.826;6.214;2023-04-03T04:06:58;3.27;;;1.10;;
54937;SDS011;52756;52.826;6.214;2023-04-03T04:09:25;2.70;;;1.00;;
54937;SDS011;52756;52.826;6.214;2023-04-03T04:11:52;3.30;;;1.03;;
54937;SDS011;52756;52.826;6.214;2023-04-03T04:14:18;3.70;;;1.07;;
54937;SDS011;52756;52.826;6.214;2023-04-03T04:16:45;2.23;;;0.80;;
54937;SDS011;52756;52.826;6.214;2023-04-03T04:19:12;3.10;;;0.97;;
54937;SDS011;52756;52.826;6.214;2023-04-03T04:21:38;3.23;;;1.10;;
54937;SDS011;52756;52.826;6.214;2023-04-03T04:24:04;3.90;;;1.00;;
54937;SDS011;52756;52.826;6.214;2023-04-03T04:26:30;3.97;;;1.27;;
54937;SDS011;52756;52.826;6.214;2023-04-03T04:28:56;4.33;;;1.30;;
54937;SDS011;52756;52.826;6.214;2023-04-03T04:31:22;3.33;;;1.23;;
54937;SDS011;52756;52.826;6.214;2023-04-03T04:33:48;4.87;;;1.30;;
54937;SDS011;52756;52.826;6.214;2023-04-03T04:36:14;2.77;;;1.30;;
54937;SDS011;52756;52.826;6.214;2023-04-03T04:38:40;3.17;;;1.10;;
54937;SDS011;52756;52.826;6.214;2023-04-03T04:41:06;3.43;;;1.20;;
54937;SDS011;52756;52.826;6.214;2023-04-03T04:43:31;3.33;;;1.20;;
54937;SDS011;52756;52.826;6.214;2023-04-03T04:46:04;3.13;;;1.10;;
54937;SDS011;52756;52.826;6.214;2023-04-03T04:48:31;5.10;;;1.65;;
54937;SDS011;52756;52.826;6.214;2023-04-03T04:50:58;7.00;;;1.77;;
54937;SDS011;52756;52.826;6.214;2023-04-03T04:53:23;3.23;;;1.53;;
54937;SDS011;52756;52.826;6.214;2023-04-03T04:55:49;4.13;;;1.30;;
54937;SDS011;52756;52.826;6.214;2023-04-03T04:58:16;3.50;;;1.30;;
54937;SDS011;52756;52.826;6.214;2023-04-03T05:00:42;4.30;;;1.20;;
54937;SDS011;52756;52.826;6.214;2023-04-03T05:03:08;3.97;;;1.57;;
54937;SDS011;52756;52.826;6.214;2023-04-03T05:05:33;3.77;;;1.40;;
54937;SDS011;52756;52.826;6.214;2023-04-03T05:08:00;6.23;;;1.73;;
54937;SDS011;52756;52.826;6.214;2023-04-03T05:10:27;3.97;;;1.73;;
54937;SDS011;52756;52.826;6.214;2023-04-03T05:12:52;4.73;;;1.70;;
54937;SDS011;52756;52.826;6.214;2023-04-03T05:15:18;4.67;;;1.50;;
54937;SDS011;52756;52.826;6.214;2023-04-03T05:17:44;4.47;;;1.63;;
54937;SDS011;52756;52.826;6.214;2023-04-03T05:20:10;4.80;;;1.70;;
54937;SDS011;52756;52.826;6.214;2023-04-03T05:22:36;5.33;;;1.53;;
54937;SDS011;52756;52.826;6.214;2023-04-03T05:25:02;7.33;;;2.27;;
54937;SDS011;52756;52.826;6.214;2023-04-03T05:27:28;6.20;;;1.60;;
54937;SDS011;52756;52.826;6.214;2023-04-03T05:29:54;5.13;;;1.80;;
54937;SDS011;52756;52.826;6.214;2023-04-03T05:32:21;6.30;;;2.43;;
54937;SDS011;52756;52.826;6.214;2023-04-03T05:34:48;6.50;;;1.37;;
54937;SDS011;52756;52.826;6.214;2023-04-03T05:37:13;9.57;;;2.00;;
54937;SDS011;52756;52.826;6.214;2023-04-03T05:39:39;5.13;;;2.00;;
54937;SDS011;52756;52.826;6.214;2023-04-03T05:42:06;3.17;;;1.23;;
54937;SDS011;52756;52.826;6.214;2023-04-03T05:44:32;3.20;;;1.53;;
54937;SDS011;52756;52.826;6.214;2023-04-03T05:46:58;5.43;;;1.83;;
54937;SDS011;52756;52.826;6.214;2023-04-03T05:49:24;7.43;;;2.10;;
54937;SDS011;52756;52.826;6.214;2023-04-03T05:51:50;6.23;;;1.87;;
54937;SDS011;52756;52.826;6.214;2023-04-03T05:56:44;8.00;;;1.97;;
54937;SDS011;52756;52.826;6.214;2023-04-03T05:59:10;4.50;;;1.50;;
54937;SDS011;52756;52.826;6.214;2023-04-03T06:01:36;6.63;;;1.50;;
54937;SDS011;52756;52.826;6.214;2023-04-03T06:04:02;6.40;;;1.90;;
54937;SDS011;52756;52.826;6.214;2023-04-03T06:09:14;6.90;;;1.70;;
54937;SDS011;52756;52.826;6.214;2023-04-03T06:11:41;6.27;;;1.77;;
54937;SDS011;52756;52.826;6.214;2023-04-03T06:14:07;7.70;;;2.20;;
54937;SDS011;52756;52.826;6.214;2023-04-03T06:16:34;4.07;;;1.67;;
54937;SDS011;52756;52.826;6.214;2023-04-03T06:19:00;5.53;;;1.80;;
54937;SDS011;52756;52.826;6.214;2023-04-03T06:21:25;4.57;;;1.88;;
54937;SDS011;52756;52.826;6.214;2023-04-03T06:23:51;6.80;;;2.10;;
54937;SDS011;52756;52.826;6.214;2023-04-03T06:26:17;6.20;;;2.20;;
54937;SDS011;52756;52.826;6.214;2023-04-03T06:28:43;7.35;;;2.13;;
54937;SDS011;52756;52.826;6.214;2023-04-03T06:31:09;6.88;;;2.45;;
54937;SDS011;52756;52.826;6.214;2023-04-03T06:33:34;5.63;;;1.88;;
54937;SDS011;52756;52.826;6.214;2023-04-03T06:36:03;5.20;;;1.92;;
54937;SDS011;52756;52.826;6.214;2023-04-03T06:38:30;5.53;;;1.98;;
54937;SDS011;52756;52.826;6.214;2023-04-03T06:40:56;6.85;;;1.80;;
54937;SDS011;52756;52.826;6.214;2023-04-03T06:43:22;3.83;;;1.60;;
54937;SDS011;52756;52.826;6.214;2023-04-03T06:45:48;6.22;;;1.85;;
54937;SDS011;52756;52.826;6.214;2023-04-03T06:48:13;4.95;;;1.88;;
54937;SDS011;52756;52.826;6.214;2023-04-03T06:50:39;5.68;;;2.03;;
54937;SDS011;52756;52.826;6.214;2023-04-03T06:53:05;4.70;;;1.83;;
54937;SDS011;52756;52.826;6.214;2023-04-03T06:55:32;5.78;;;2.10;;
54937;SDS011;52756;52.826;6.214;2023-04-03T06:57:58;5.78;;;1.98;;
54937;SDS011;52756;52.826;6.214;2023-04-03T07:00:24;5.43;;;1.92;;
54937;SDS011;52756;52.826;6.214;2023-04-03T07:02:50;6.18;;;2.10;;
54937;SDS011;52756;52.826;6.214;2023-04-03T07:05:16;9.05;;;2.30;;
54937;SDS011;52756;52.826;6.214;2023-04-03T07:07:42;5.03;;;2.40;;
54937;SDS011;52756;52.826;6.214;2023-04-03T07:10:08;6.32;;;1.80;;
54937;SDS011;52756;52.826;6.214;2023-04-03T07:12:35;6.40;;;1.73;;
54937;SDS011;52756;52.826;6.214;2023-04-03T07:15:01;4.60;;;1.80;;
54937;SDS011;52756;52.826;6.214;2023-04-03T07:17:26;6.15;;;1.80;;
54937;SDS011;52756;52.826;6.214;2023-04-03T07:19:52;6.55;;;1.73;;
54937;SDS011;52756;52.826;6.214;2023-04-03T07:22:18;3.47;;;1.33;;
54937;SDS011;52756;52.826;6.214;2023-04-03T07:24:43;4.07;;;1.42;;
54937;SDS011;52756;52.826;6.214;2023-04-03T07:27:09;3.13;;;1.90;;
54937;SDS011;52756;52.826;6.214;2023-04-03T07:29:37;6.72;;;2.13;;
54937;SDS011;52756;52.826;6.214;2023-04-03T07:32:04;3.92;;;1.27;;
54937;SDS011;52756;52.826;6.214;2023-04-03T07:34:31;3.22;;;1.05;;
54937;SDS011;52756;52.826;6.214;2023-04-03T07:36:57;2.95;;;1.42;;
54937;SDS011;52756;52.826;6.214;2023-04-03T07:39:23;5.43;;;1.48;;
54937;SDS011;52756;52.826;6.214;2023-04-03T07:41:50;3.92;;;1.10;;
54937;SDS011;52756;52.826;6.214;2023-04-03T07:44:17;5.45;;;1.50;;
54937;SDS011;52756;52.826;6.214;2023-04-03T07:46:42;2.75;;;1.02;;
54937;SDS011;52756;52.826;6.214;2023-04-03T07:49:08;4.88;;;1.30;;
54937;SDS011;52756;52.826;6.214;2023-04-03T07:51:35;3.08;;;1.10;;
54937;SDS011;52756;52.826;6.214;2023-04-03T07:54:01;3.58;;;1.60;;
54937;SDS011;52756;52.826;6.214;2023-04-03T07:56:27;3.05;;;0.93;;
54937;SDS011;52756;52.826;6.214;2023-04-03T07:58:53;2.22;;;0.90;;
54937;SDS011;52756;52.826;6.214;2023-04-03T08:01:18;4.63;;;1.10;;
54937;SDS011;52756;52.826;6.214;2023-04-03T08:03:44;4.43;;;1.00;;
54937;SDS011;52756;52.826;6.214;2023-04-03T08:06:10;4.78;;;1.17;;
54937;SDS011;52756;52.826;6.214;2023-04-03T08:08:36;4.60;;;1.40;;
54937;SDS011;52756;52.826;6.214;2023-04-03T08:11:02;3.15;;;1.05;;
54937;SDS011;52756;52.826;6.214;2023-04-03T08:13:28;4.70;;;1.30;;
54937;SDS011;52756;52.826;6.214;2023-04-03T08:15:55;2.83;;;0.70;;
54937;SDS011;52756;52.826;6.214;2023-04-03T08:18:22;3.15;;;0.80;;
54937;SDS011;52756;52.826;6.214;2023-04-03T08:20:50;2.35;;;0.88;;
54937;SDS011;52756;52.826;6.214;2023-04-03T08:23:16;3.90;;;0.90;;
54937;SDS011;52756;52.826;6.214;2023-04-03T08:25:43;3.25;;;0.93;;
54937;SDS011;52756;52.826;6.214;2023-04-03T08:28:10;3.75;;;1.17;;
54937;SDS011;52756;52.826;6.214;2023-04-03T08:30:38;5.53;;;1.17;;
54937;SDS011;52756;52.826;6.214;2023-04-03T08:33:05;3.90;;;1.23;;
54937;SDS011;52756;52.826;6.214;2023-04-03T08:35:31;1.77;;;0.95;;
54937;SDS011;52756;52.826;6.214;2023-04-03T08:37:56;4.03;;;1.02;;
54937;SDS011;52756;52.826;6.214;2023-04-03T08:40:22;2.90;;;0.82;;
54937;SDS011;52756;52.826;6.214;2023-04-03T08:45:50;2.28;;;0.90;;
54937;SDS011;52756;52.826;6.214;2023-04-03T08:50:56;2.63;;;0.80;;
54937;SDS011;52756;52.826;6.214;2023-04-03T08:53:27;3.03;;;0.80;;
54937;SDS011;52756;52.826;6.214;2023-04-03T08:55:57;5.20;;;1.42;;
54937;SDS011;52756;52.826;6.214;2023-04-03T08:58:28;3.03;;;1.10;;
54937;SDS011;52756;52.826;6.214;2023-04-03T09:00:59;2.20;;;0.70;;
54937;SDS011;52756;52.826;6.214;2023-04-03T09:03:30;2.53;;;0.63;;
54937;SDS011;52756;52.826;6.214;2023-04-03T09:14:49;2.80;;;0.70;;
54937;SDS011;52756;52.826;6.214;2023-04-03T09:20:22;2.38;;;0.82;;
54937;SDS011;52756;52.826;6.214;2023-04-03T09:22:51;2.25;;;0.77;;
54937;SDS011;52756;52.826;6.214;2023-04-03T09:25:23;1.95;;;0.90;;
54937;SDS011;52756;52.826;6.214;2023-04-03T09:28:00;1.45;;;0.68;;
54937;SDS011;52756;52.826;6.214;2023-04-03T09:30:27;1.98;;;0.43;;
54937;SDS011;52756;52.826;6.214;2023-04-03T09:32:54;2.00;;;1.00;;
54937;SDS011;52756;52.826;6.214;2023-04-03T09:35:34;1.83;;;0.80;;
54937;SDS011;52756;52.826;6.214;2023-04-03T09:38:22;2.33;;;0.70;;
54937;SDS011;52756;52.826;6.214;2023-04-03T09:40:48;2.13;;;0.90;;
54937;SDS011;52756;52.826;6.214;2023-04-03T09:45:52;2.33;;;0.90;;
54937;SDS011;52756;52.826;6.214;2023-04-03T09:48:20;1.85;;;0.52;;
54937;SDS011;52756;52.826;6.214;2023-04-03T09:53:36;2.92;;;0.73;;
54937;SDS011;52756;52.826;6.214;2023-04-03T09:56:04;3.13;;;0.65;;
54937;SDS011;52756;52.826;6.214;2023-04-03T09:58:48;1.65;;;0.70;;
54937;SDS011;52756;52.826;6.214;2023-04-03T10:04:02;2.35;;;0.60;;
54937;SDS011;52756;52.826;6.214;2023-04-03T10:06:34;3.40;;;0.98;;
54937;SDS011;52756;52.826;6.214;2023-04-03T10:09:28;2.20;;;0.68;;
54937;SDS011;52756;52.826;6.214;2023-04-03T10:12:00;2.53;;;0.90;;
54937;SDS011;52756;52.826;6.214;2023-04-03T10:14:34;3.10;;;0.80;;
54937;SDS011;52756;52.826;6.214;2023-04-03T10:17:09;3.25;;;0.60;;
54937;SDS011;52756;52.826;6.214;2023-04-03T10:19:46;1.90;;;0.70;;
54937;SDS011;52756;52.826;6.214;2023-04-03T10:22:41;1.98;;;0.52;;
54937;SDS011;52756;52.826;6.214;2023-04-03T10:30:32;1.95;;;0.95;;
54937;SDS011;52756;52.826;6.214;2023-04-03T10:33:19;3.50;;;1.08;;
54937;SDS011;52756;52.826;6.214;2023-04-03T10:35:56;3.40;;;0.90;;
54937;SDS011;52756;52.826;6.214;2023-04-03T10:38:28;3.85;;;1.23;;
54937;SDS011;52756;52.826;6.214;2023-04-03T10:41:17;2.78;;;0.70;;
54937;SDS011;52756;52.826;6.214;2023-04-03T10:49:49;3.72;;;1.17;;
54937;SDS011;52756;52.826;6.214;2023-04-03T10:58:24;6.63;;;0.80;;
54937;SDS011;52756;52.826;6.214;2023-04-03T11:00:57;1.85;;;0.98;;
54937;SDS011;52756;52.826;6.214;2023-04-03T11:03:36;3.60;;;0.80;;
54937;SDS011;52756;52.826;6.214;2023-04-03T11:06:07;1.88;;;0.60;;
54937;SDS011;52756;52.826;6.214;2023-04-03T11:11:30;3.22;;;0.80;;
54937;SDS011;52756;52.826;6.214;2023-04-03T11:19:33;1.33;;;0.50;;
54937;SDS011;52756;52.826;6.214;2023-04-03T11:22:23;2.38;;;0.80;;
54937;SDS011;52756;52.826;6.214;2023-04-03T11:27:54;3.40;;;0.90;;
54937;SDS011;52756;52.826;6.214;2023-04-03T11:30:38;2.63;;;0.95;;
54937;SDS011;52756;52.826;6.214;2023-04-03T11:35:45;3.10;;;1.25;;
54937;SDS011;52756;52.826;6.214;2023-04-03T11:38:23;2.97;;;0.60;;
54937;SDS011;52756;52.826;6.214;2023-04-03T11:40:54;1.38;;;0.60;;
54937;SDS011;52756;52.826;6.214;2023-04-03T11:45:58;3.70;;;0.85;;
54937;SDS011;52756;52.826;6.214;2023-04-03T11:50:57;3.05;;;0.85;;
54937;SDS011;52756;52.826;6.214;2023-04-03T11:53:27;2.78;;;0.73;;
54937;SDS011;52756;52.826;6.214;2023-04-03T11:58:31;2.72;;;0.90;;
54937;SDS011;52756;52.826;6.214;2023-04-03T12:03:31;2.45;;;0.80;;
54937;SDS011;52756;52.826;6.214;2023-04-03T12:08:52;3.35;;;0.77;;
54937;SDS011;52756;52.826;6.214;2023-04-03T12:11:24;2.85;;;1.17;;
54937;SDS011;52756;52.826;6.214;2023-04-03T12:21:22;2.45;;;0.80;;
54937;SDS011;52756;52.826;6.214;2023-04-03T12:24:01;3.63;;;1.02;;
54937;SDS011;52756;52.826;6.214;2023-04-03T12:43:01;2.92;;;0.73;;
54937;SDS011;52756;52.826;6.214;2023-04-03T12:45:29;3.80;;;1.17;;
54937;SDS011;52756;52.826;6.214;2023-04-03T12:48:25;3.03;;;1.38;;
54937;SDS011;52756;52.826;6.214;2023-04-03T12:50:52;3.63;;;0.80;;
54937;SDS011;52756;52.826;6.214;2023-04-03T12:55:46;2.83;;;0.85;;
54937;SDS011;52756;52.826;6.214;2023-04-03T12:58:16;3.22;;;1.35;;
54937;SDS011;52756;52.826;6.214;2023-04-03T13:00:46;2.33;;;0.90;;
54937;SDS011;52756;52.826;6.214;2023-04-03T13:03:24;2.15;;;0.90;;
54937;SDS011;52756;52.826;6.214;2023-04-03T13:05:53;2.75;;;1.00;;
54937;SDS011;52756;52.826;6.214;2023-04-03T13:08:24;3.33;;;1.10;;
54937;SDS011;52756;52.826;6.214;2023-04-03T13:11:01;2.70;;;1.02;;
54937;SDS011;52756;52.826;6.214;2023-04-03T13:13:36;3.55;;;1.17;;
54937;SDS011;52756;52.826;6.214;2023-04-03T13:16:10;2.47;;;0.90;;
54937;SDS011;52756;52.826;6.214;2023-04-03T13:18:38;2.47;;;1.00;;
54937;SDS011;52756;52.826;6.214;2023-04-03T13:21:05;3.20;;;1.00;;
54937;SDS011;52756;52.826;6.214;2023-04-03T13:23:39;2.33;;;0.88;;
54937;SDS011;52756;52.826;6.214;2023-04-03T13:26:07;3.83;;;1.25;;
54937;SDS011;52756;52.826;6.214;2023-04-03T13:28:34;4.13;;;1.00;;
54937;SDS011;52756;52.826;6.214;2023-04-03T13:31:02;3.00;;;1.00;;
54937;SDS011;52756;52.826;6.214;2023-04-03T13:33:35;3.45;;;1.17;;
54937;SDS011;52756;52.826;6.214;2023-04-03T13:36:15;3.47;;;1.10;;
54937;SDS011;52756;52.826;6.214;2023-04-03T13:39:20;3.30;;;1.00;;
54937;SDS011;52756;52.826;6.214;2023-04-03T13:41:45;2.38;;;0.90;;
54937;SDS011;52756;52.826;6.214;2023-04-03T13:46:51;3.25;;;1.23;;
54937;SDS011;52756;52.826;6.214;2023-04-03T13:49:36;1.90;;;0.90;;
54937;SDS011;52756;52.826;6.214;2023-04-03T13:52:24;5.30;;;1.25;;
54937;SDS011;52756;52.826;6.214;2023-04-03T13:55:03;2.10;;;0.90;;
54937;SDS011;52756;52.826;6.214;2023-04-03T14:00:45;2.60;;;1.00;;
54937;SDS011;52756;52.826;6.214;2023-04-03T14:06:15;3.72;;;1.23;;
54937;SDS011;52756;52.826;6.214;2023-04-03T14:08:42;2.83;;;1.08;;
54937;SDS011;52756;52.826;6.214;2023-04-03T14:11:19;2.92;;;1.10;;
54937;SDS011;52756;52.826;6.214;2023-04-03T14:13:48;3.38;;;1.23;;
54937;SDS011;52756;52.826;6.214;2023-04-03T14:16:16;3.50;;;1.25;;
54937;SDS011;52756;52.826;6.214;2023-04-03T14:18:46;3.80;;;1.30;;
54937;SDS011;52756;52.826;6.214;2023-04-03T14:21:14;3.95;;;1.40;;
54937;SDS011;52756;52.826;6.214;2023-04-03T14:23:41;3.95;;;1.33;;
54937;SDS011;52756;52.826;6.214;2023-04-03T14:26:20;6.00;;;1.30;;
54937;SDS011;52756;52.826;6.214;2023-04-03T14:28:50;2.28;;;1.05;;
54937;SDS011;52756;52.826;6.214;2023-04-03T14:31:18;3.60;;;1.27;;
54937;SDS011;52756;52.826;6.214;2023-04-03T14:33:45;3.92;;;1.38;;
54937;SDS011;52756;52.826;6.214;2023-04-03T14:36:20;3.45;;;1.10;;
54937;SDS011;52756;52.826;6.214;2023-04-03T14:38:47;4.75;;;1.20;;
54937;SDS011;52756;52.826;6.214;2023-04-03T14:41:15;3.95;;;1.63;;
54937;SDS011;52756;52.826;6.214;2023-04-03T14:43:44;2.78;;;1.13;;
54937;SDS011;52756;52.826;6.214;2023-04-03T14:46:18;2.25;;;1.08;;
54937;SDS011;52756;52.826;6.214;2023-04-03T14:48:47;2.95;;;1.33;;
54937;SDS011;52756;52.826;6.214;2023-04-03T14:51:13;3.20;;;0.98;;
54937;SDS011;52756;52.826;6.214;2023-04-03T14:53:41;3.75;;;1.10;;
54937;SDS011;52756;52.826;6.214;2023-04-03T14:56:12;3.53;;;1.50;;
54937;SDS011;52756;52.826;6.214;2023-04-03T14:58:52;4.07;;;1.42;;
54937;SDS011;52756;52.826;6.214;2023-04-03T15:01:21;3.75;;;1.27;;
54937;SDS011;52756;52.826;6.214;2023-04-03T15:03:47;2.90;;;1.50;;
54937;SDS011;52756;52.826;6.214;2023-04-03T15:06:13;5.03;;;1.73;;
54937;SDS011;52756;52.826;6.214;2023-04-03T15:08:40;3.25;;;1.30;;
54937;SDS011;52756;52.826;6.214;2023-04-03T15:11:08;3.35;;;1.13;;
54937;SDS011;52756;52.826;6.214;2023-04-03T15:13:35;5.18;;;1.40;;
54937;SDS011;52756;52.826;6.214;2023-04-03T15:16:01;3.67;;;1.20;;
54937;SDS011;52756;52.826;6.214;2023-04-03T15:18:27;3.83;;;1.60;;
54937;SDS011;52756;52.826;6.214;2023-04-03T15:20:55;3.30;;;1.40;;
54937;SDS011;52756;52.826;6.214;2023-04-03T15:23:21;3.15;;;1.63;;
54937;SDS011;52756;52.826;6.214;2023-04-03T15:25:51;4.63;;;1.80;;
54937;SDS011;52756;52.826;6.214;2023-04-03T15:28:19;2.67;;;1.42;;
54937;SDS011;52756;52.826;6.214;2023-04-03T15:30:49;5.00;;;1.98;;
54937;SDS011;52756;52.826;6.214;2023-04-03T15:33:16;3.30;;;1.58;;
54937;SDS011;52756;52.826;6.214;2023-04-03T15:35:41;5.13;;;1.60;;
54937;SDS011;52756;52.826;6.214;2023-04-03T15:38:07;3.47;;;1.15;;
54937;SDS011;52756;52.826;6.214;2023-04-03T15:40:33;4.88;;;1.75;;
54937;SDS011;52756;52.826;6.214;2023-04-03T15:42:59;3.00;;;1.27;;
54937;SDS011;52756;52.826;6.214;2023-04-03T15:45:25;3.58;;;1.42;;
54937;SDS011;52756;52.826;6.214;2023-04-03T15:47:54;4.95;;;1.38;;
54937;SDS011;52756;52.826;6.214;2023-04-03T15:50:20;3.55;;;1.35;;
54937;SDS011;52756;52.826;6.214;2023-04-03T15:52:48;2.97;;;1.35;;
54937;SDS011;52756;52.826;6.214;2023-04-03T15:55:19;4.28;;;1.73;;
54937;SDS011;52756;52.826;6.214;2023-04-03T15:57:48;2.60;;;1.00;;
54937;SDS011;52756;52.826;6.214;2023-04-03T16:00:14;5.47;;;1.73;;
54937;SDS011;52756;52.826;6.214;2023-04-03T16:02:42;2.72;;;1.20;;
54937;SDS011;52756;52.826;6.214;2023-04-03T16:05:09;3.80;;;1.30;;
54937;SDS011;52756;52.826;6.214;2023-04-03T16:07:39;4.10;;;1.60;;
54937;SDS011;52756;52.826;6.214;2023-04-03T16:10:06;4.53;;;1.60;;
54937;SDS011;52756;52.826;6.214;2023-04-03T16:12:32;2.30;;;1.15;;
54937;SDS011;52756;52.826;6.214;2023-04-03T16:14:58;3.75;;;1.48;;
54937;SDS011;52756;52.826;6.214;2023-04-03T16:17:25;2.65;;;1.10;;
54937;SDS011;52756;52.826;6.214;2023-04-03T16:19:51;2.63;;;0.90;;
54937;SDS011;52756;52.826;6.214;2023-04-03T16:22:18;2.22;;;0.90;;
54937;SDS011;52756;52.826;6.214;2023-04-03T16:24:45;2.95;;;1.30;;
54937;SDS011;52756;52.826;6.214;2023-04-03T16:27:10;3.63;;;1.38;;
54937;SDS011;52756;52.826;6.214;2023-04-03T16:29:36;2.75;;;1.10;;
54937;SDS011;52756;52.826;6.214;2023-04-03T16:32:02;3.30;;;1.10;;
54937;SDS011;52756;52.826;6.214;2023-04-03T16:34:28;4.15;;;1.30;;
54937;SDS011;52756;52.826;6.214;2023-04-03T16:36:57;2.25;;;1.00;;
54937;SDS011;52756;52.826;6.214;2023-04-03T16:39:22;3.78;;;1.05;;
54937;SDS011;52756;52.826;6.214;2023-04-03T16:41:48;2.58;;;1.13;;
54937;SDS011;52756;52.826;6.214;2023-04-03T16:44:14;3.08;;;1.23;;
54937;SDS011;52756;52.826;6.214;2023-04-03T16:46:39;2.10;;;1.10;;
54937;SDS011;52756;52.826;6.214;2023-04-03T16:49:05;2.03;;;0.80;;
54937;SDS011;52756;52.826;6.214;2023-04-03T16:51:31;1.55;;;0.82;;
54937;SDS011;52756;52.826;6.214;2023-04-03T16:53:57;2.35;;;0.82;;
54937;SDS011;52756;52.826;6.214;2023-04-03T16:56:23;4.30;;;1.00;;